Decoded Metar for VECC (CALCUTTA in INDIA) (IATA:CCU) | Meteo·Mobile Aviation Weather
aviador You're here:

VECC Decoded Metar

CALCUTTA in INDIA
Report Time2019-07-22 16:00:00
UTC Time2019-07-22 16:25:43
Flight Rules ifr IFR
Wind180° at 10 kt
W.Decomp.*RWY 19: 9.9 kt HW 1.6 kt LCW
Visibility3800 m
Phenomena:Haze
Clouds:Few 020 Hf
Scattered 100 Hf
Expected CloudBase > 1,600 ft AGL from Temp-Dew spread
CeilingNone
Temp30°C (ISA +15)
Dew Point26°C (79% RH)
Heat Index37.4°C
QNH1003 hPa
Density Alt2,520 ft
Elevation20 ft
Report Wrong Elevation
Raw Report
METAR VECC 221600Z 18010KT 3800 HZ FEW020 SCT100 30/26 Q1003 NOSIG=

Extra information for VECC:More info

Metar Taf Metar & Taf Last 4 Metars F.Rules Stats Wind Profile Meteogram Temp Stats Airport Information Weather charts Add Link Nearby VenuesMetar ALERT Operation Metar Decoded Social comments